Time;durP1;ratioP1;P1;durP2;ratioP2;P2;SDS_P1;SDS_P2;PMS_P1;PMS_P2;Temp;Humidity;BMP_temperature;BMP_pressure;BME280_temperature;BME280_humidity;BME280_pressure;Samples;Min_cycle;Max_cycle;Signal;HPM_P1;HPM_P2
2021/10/09 00:00:55;;;;;;;;;24.50;18.25;;;;;21.05;100.00;102105.66;5030926;28;45415;-82
2021/10/09 00:03:21;;;;;;;;;22.25;21.00;;;;;21.04;100.00;102112.03;5026475;28;45328;-82
2021/10/09 00:05:46;;;;;;;;;22.75;20.75;;;;;21.01;100.00;102115.00;5031656;28;46282;-82
2021/10/09 00:08:16;;;;;;;;;24.75;20.25;;;;;21.01;100.00;102119.53;5031800;28;45426;-82
2021/10/09 00:10:43;;;;;;;;;22.25;21.00;;;;;20.91;100.00;102117.66;5035248;28;45516;-81
2021/10/09 00:13:09;;;;;;;;;25.50;19.00;;;;;20.95;100.00;102109.31;5028072;28;45409;-82
2021/10/09 00:15:35;;;;;;;;;21.75;17.00;;;;;20.90;100.00;102109.75;5036146;28;47527;-81
2021/10/09 00:18:01;;;;;;;;;20.00;19.00;;;;;20.91;100.00;102106.06;5039501;28;45426;-82
2021/10/09 00:20:28;;;;;;;;;23.75;19.25;;;;;20.91;100.00;102111.44;5030291;28;45509;-82
2021/10/09 00:22:53;;;;;;;;;21.25;18.50;;;;;20.83;100.00;102109.44;5037494;28;46023;-82
2021/10/09 00:25:20;;;;;;;;;22.25;19.50;;;;;20.87;100.00;102108.16;5038919;28;46079;-82
2021/10/09 00:27:45;;;;;;;;;25.25;22.25;;;;;20.78;100.00;102094.72;5038744;28;45645;-82
2021/10/09 00:30:11;;;;;;;;;25.50;19.25;;;;;20.75;100.00;102103.91;5038339;28;45517;-82
2021/10/09 00:32:36;;;;;;;;;31.75;23.00;;;;;20.80;100.00;102109.72;5043951;28;45491;-82
2021/10/09 00:35:02;;;;;;;;;20.75;17.75;;;;;20.78;100.00;102105.44;5031757;28;45510;-82
2021/10/09 00:37:27;;;;;;;;;24.50;21.75;;;;;20.77;100.00;102101.06;5028322;28;45872;-81
2021/10/09 00:39:53;;;;;;;;;18.00;15.25;;;;;20.81;100.00;102103.34;5024926;28;45427;-81
2021/10/09 00:42:18;;;;;;;;;27.75;22.00;;;;;20.79;100.00;102105.31;5033852;28;45404;-81
2021/10/09 00:44:44;;;;;;;;;22.50;19.75;;;;;20.81;100.00;102113.25;5034883;28;46489;-81
2021/10/09 00:47:09;;;;;;;;;20.75;19.00;;;;;20.78;100.00;102102.75;5030380;28;45426;-81
2021/10/09 00:49:34;;;;;;;;;23.25;17.25;;;;;20.75;100.00;102100.38;5037401;28;45446;-82
2021/10/09 00:52:04;;;;;;;;;25.25;19.75;;;;;20.65;100.00;102100.34;5038231;28;45464;-81
2021/10/09 00:54:29;;;;;;;;;25.25;18.75;;;;;20.61;100.00;102100.72;5038322;28;46657;-81
2021/10/09 00:57:00;;;;;;;;;28.75;19.75;;;;;20.72;100.00;102101.50;5038355;28;45247;-81
2021/10/09 00:59:27;;;;;;;;;21.75;19.00;;;;;20.70;100.00;102102.59;5034341;27;45506;-81
2021/10/09 01:01:54;;;;;;;;;23.25;19.25;;;;;20.71;100.00;102105.16;5035220;28;46924;-81
2021/10/09 01:04:20;;;;;;;;;21.25;21.25;;;;;20.63;100.00;102098.78;5037651;28;45316;-81
2021/10/09 01:06:46;;;;;;;;;19.75;15.75;;;;;20.62;100.00;102097.06;5035787;28;45674;-81
2021/10/09 01:09:11;;;;;;;;;17.50;14.75;;;;;20.61;100.00;102098.06;5030752;28;45235;-81
2021/10/09 01:11:38;;;;;;;;;22.50;19.00;;;;;20.54;100.00;102095.06;5032076;28;45267;-81
2021/10/09 01:14:04;;;;;;;;;23.75;19.25;;;;;20.50;100.00;102115.09;5037890;28;46323;-81
2021/10/09 01:16:30;;;;;;;;;30.50;21.00;;;;;20.50;100.00;102093.63;5027087;28;45432;-81
2021/10/09 01:18:58;;;;;;;;;22.75;20.50;;;;;20.44;100.00;102099.53;5031742;28;45635;-81
2021/10/09 01:21:24;;;;;;;;;21.25;18.00;;;;;20.43;100.00;102095.16;5033114;27;45539;-81
2021/10/09 01:23:50;;;;;;;;;23.50;17.00;;;;;20.42;100.00;102104.19;5034717;28;47284;-81
2021/10/09 01:26:17;;;;;;;;;24.00;22.25;;;;;20.45;100.00;102102.09;5048295;28;45659;-81
2021/10/09 01:28:48;;;;;;;;;18.50;10.50;;;;;20.62;100.00;102091.69;5051031;28;45297;-81
2021/10/09 01:31:14;;;;;;;;;18.00;17.25;;;;;20.47;100.00;102097.44;5037266;28;45340;-81
2021/10/09 01:33:41;;;;;;;;;25.50;20.50;;;;;20.41;100.00;102095.28;5029596;28;45529;-81
2021/10/09 01:36:07;;;;;;;;;21.00;17.75;;;;;20.43;100.00;102108.56;5038060;28;45237;-83
2021/10/09 01:38:35;;;;;;;;;20.75;20.25;;;;;20.43;100.00;102104.06;5048179;28;45588;-79
2021/10/09 01:41:01;;;;;;;;;20.00;18.00;;;;;20.36;100.00;102107.41;5033225;28;46109;-80
2021/10/09 01:43:27;;;;;;;;;23.75;20.75;;;;;20.33;100.00;102102.28;5039997;27;47289;-80
2021/10/09 01:45:52;;;;;;;;;27.00;20.75;;;;;20.31;100.00;102101.56;5037699;28;45432;-80
2021/10/09 01:48:31;;;;;;;;;23.25;18.25;;;;;20.28;100.00;102099.16;5037933;28;45466;-80
2021/10/09 01:50:56;;;;;;;;;26.50;20.75;;;;;20.27;100.00;102092.09;5036513;27;45503;-80
2021/10/09 01:53:22;;;;;;;;;22.25;18.25;;;;;20.25;100.00;102094.91;5034012;28;45253;-80
2021/10/09 01:55:47;;;;;;;;;20.75;18.00;;;;;20.24;100.00;102090.50;5037710;28;45424;-81
2021/10/09 01:58:12;;;;;;;;;25.25;19.50;;;;;20.29;100.00;102090.97;5036356;28;45336;-80
2021/10/09 02:00:38;;;;;;;;;19.25;18.50;;;;;20.16;100.00;102093.00;5031074;28;45227;-80
2021/10/09 02:03:05;;;;;;;;;26.00;20.00;;;;;20.12;100.00;102089.72;5033989;28;46286;-81
2021/10/09 02:05:31;;;;;;;;;24.75;17.75;;;;;20.15;100.00;102097.53;5053092;28;45655;-80
2021/10/09 02:07:58;;;;;;;;;22.00;19.00;;;;;20.13;100.00;102088.75;5039139;28;45330;-80
2021/10/09 02:10:24;;;;;;;;;25.25;22.75;;;;;20.12;100.00;102089.72;5034734;28;45701;-80
2021/10/09 02:12:50;;;;;;;;;21.00;18.25;;;;;20.15;100.00;102094.84;5032083;27;48144;-81
2021/10/09 02:15:19;;;;;;;;;28.25;20.00;;;;;20.17;100.00;102094.72;5037794;28;45428;-81
2021/10/09 02:18:23;;;;;;;;;21.75;21.25;;;;;20.14;100.00;102093.13;5037712;28;45355;-81
2021/10/09 02:26:16;;;;;;;;;19.50;19.00;;;;;20.05;100.00;102088.56;5037534;28;45281;-81
2021/10/09 02:28:41;;;;;;;;;28.50;22.00;;;;;20.02;100.00;102088.00;5034347;28;45821;-81
2021/10/09 02:31:07;;;;;;;;;28.25;26.00;;;;;19.99;100.00;102083.75;5037164;28;45362;-81
2021/10/09 02:33:32;;;;;;;;;29.25;22.50;;;;;19.98;100.00;102082.03;5050632;28;47885;-80
2021/10/09 02:35:58;;;;;;;;;21.50;18.75;;;;;19.97;100.00;102082.16;5037473;28;45210;-81
2021/10/09 02:38:23;;;;;;;;;21.25;20.00;;;;;19.94;100.00;102085.13;5025349;28;45450;-80
2021/10/09 02:40:48;;;;;;;;;18.75;14.50;;;;;19.96;100.00;102086.69;5037207;28;45425;-80
2021/10/09 02:43:15;;;;;;;;;22.50;20.25;;;;;19.89;100.00;102088.19;5036878;28;45441;-80
2021/10/09 02:45:40;;;;;;;;;28.50;22.00;;;;;19.88;100.00;102089.16;5025651;28;45424;-80
2021/10/09 02:48:08;;;;;;;;;25.50;20.25;;;;;19.86;100.00;102084.91;5028427;28;45534;-80
2021/10/09 02:50:34;;;;;;;;;25.50;23.25;;;;;19.78;100.00;102078.38;5035482;28;45488;-81
2021/10/09 02:52:59;;;;;;;;;25.50;22.00;;;;;19.82;100.00;102087.03;5036006;28;46059;-81
2021/10/09 02:55:25;;;;;;;;;22.00;20.25;;;;;19.85;100.00;102084.06;5032121;28;45323;-80
2021/10/09 02:57:51;;;;;;;;;25.25;19.25;;;;;19.84;100.00;102081.53;5031246;28;45345;-81
2021/10/09 03:00:18;;;;;;;;;24.00;21.25;;;;;19.82;100.00;102088.84;5030342;28;45382;-81
2021/10/09 03:02:43;;;;;;;;;30.50;22.00;;;;;19.71;100.00;102089.75;5031563;28;45405;-81
2021/10/09 03:05:10;;;;;;;;;24.25;22.00;;;;;19.80;100.00;102083.63;5035728;28;45455;-81
2021/10/09 03:07:36;;;;;;;;;25.00;23.50;;;;;19.70;100.00;102078.19;5032464;28;45459;-81
2021/10/09 03:10:04;;;;;;;;;23.00;20.75;;;;;19.70;100.00;102075.50;5035219;28;46059;-81
2021/10/09 03:12:29;;;;;;;;;24.25;21.25;;;;;19.77;100.00;102082.03;5029791;28;45554;-81
2021/10/09 03:14:54;;;;;;;;;28.25;22.00;;;;;19.86;100.00;102080.41;5036565;28;45306;-81
2021/10/09 03:17:20;;;;;;;;;24.75;20.75;;;;;19.77;100.00;102081.19;5023636;28;45276;-81
2021/10/09 03:19:45;;;;;;;;;24.50;21.00;;;;;19.69;100.00;102081.84;5033451;28;45609;-81
2021/10/09 03:22:11;;;;;;;;;25.00;21.75;;;;;19.77;100.00;102086.53;5035243;28;47356;-81
2021/10/09 03:24:36;;;;;;;;;26.75;21.75;;;;;19.77;100.00;102079.34;5033057;28;45337;-81
2021/10/09 03:27:02;;;;;;;;;23.25;21.25;;;;;19.84;100.00;102087.75;5027491;28;45305;-81
2021/10/09 03:29:27;;;;;;;;;28.50;24.25;;;;;19.82;100.00;102087.03;5030657;28;45545;-81
2021/10/09 03:31:53;;;;;;;;;25.00;21.25;;;;;19.74;100.00;102081.47;5036871;28;45323;-81
2021/10/09 03:34:18;;;;;;;;;29.50;23.75;;;;;19.68;100.00;102084.66;5038910;28;45346;-81
2021/10/09 03:36:44;;;;;;;;;28.25;21.50;;;;;19.67;100.00;102085.63;5034439;28;45267;-81
2021/10/09 03:39:13;;;;;;;;;24.25;21.50;;;;;19.60;100.00;102087.13;5035066;28;45545;-81
2021/10/09 03:41:42;;;;;;;;;24.25;20.50;;;;;19.60;100.00;102079.94;5047917;27;47350;-81
2021/10/09 03:44:08;;;;;;;;;30.75;24.50;;;;;19.68;100.00;102087.31;5028893;28;45522;-81
2021/10/09 03:46:41;;;;;;;;;17.25;15.25;;;;;19.67;100.00;102080.25;5032049;28;45865;-81
2021/10/09 03:49:54;;;;;;;;;33.75;24.25;;;;;19.62;100.00;102086.03;5034807;28;45466;-80
2021/10/09 03:54:36;;;;;;;;;25.75;23.75;;;;;19.52;100.00;102085.09;5045674;28;45282;-80
2021/10/09 03:57:01;;;;;;;;;28.50;25.75;;;;;19.56;100.00;102083.88;5056893;28;44879;-81
2021/10/09 03:59:27;;;;;;;;;28.00;24.75;;;;;19.56;100.00;102086.56;5056998;28;45308;-80
2021/10/09 04:01:52;;;;;;;;;25.75;23.25;;;;;19.46;100.00;102074.88;5051596;28;45227;-81
2021/10/09 04:04:17;;;;;;;;;33.25;27.75;;;;;19.44;100.00;102085.72;5029634;28;45563;-81
2021/10/09 04:06:43;;;;;;;;;35.75;28.50;;;;;19.42;100.00;102079.63;5037055;28;45386;-81
2021/10/09 04:09:08;;;;;;;;;32.50;28.25;;;;;19.40;100.00;102084.25;5034950;28;45328;-81
2021/10/09 04:11:33;;;;;;;;;33.00;23.50;;;;;19.34;100.00;102079.41;5039335;28;46171;-81
2021/10/09 04:13:59;;;;;;;;;26.75;24.00;;;;;19.31;100.00;102079.66;5035236;28;45400;-81
2021/10/09 04:16:25;;;;;;;;;35.50;27.50;;;;;19.36;100.00;102084.66;5027947;28;45440;-81
2021/10/09 04:18:50;;;;;;;;;33.50;28.25;;;;;19.27;100.00;102077.38;5029230;28;45782;-81
2021/10/09 04:21:15;;;;;;;;;29.00;24.75;;;;;19.33;100.00;102082.22;5036172;28;46131;-81
2021/10/09 04:23:41;;;;;;;;;35.00;27.50;;;;;19.30;100.00;102083.31;5029021;28;45354;-81
2021/10/09 04:26:06;;;;;;;;;32.25;28.75;;;;;19.24;100.00;102074.94;5034120;28;45454;-81
2021/10/09 04:28:34;;;;;;;;;33.25;29.50;;;;;19.21;100.00;102076.03;5037774;28;45451;-81
2021/10/09 04:30:59;;;;;;;;;33.75;29.25;;;;;19.20;100.00;102073.53;5039378;28;46441;-81
2021/10/09 04:33:26;;;;;;;;;37.25;27.25;;;;;19.19;100.00;102071.81;5029996;28;45861;-81
2021/10/09 04:35:51;;;;;;;;;25.50;25.25;;;;;19.10;100.00;102076.09;5035392;28;45236;-81
2021/10/09 04:38:16;;;;;;;;;37.25;28.25;;;;;19.07;100.00;102079.03;5035605;28;45384;-81
2021/10/09 04:40:42;;;;;;;;;28.25;26.25;;;;;19.09;100.00;102071.72;5027295;28;47166;-81
2021/10/09 04:43:07;;;;;;;;;32.00;28.25;;;;;19.08;100.00;102071.84;5033507;28;45459;-81
2021/10/09 04:45:33;;;;;;;;;32.50;27.00;;;;;19.05;100.00;102068.44;5047155;28;45482;-81
2021/10/09 04:48:02;;;;;;;;;36.75;27.50;;;;;19.00;100.00;102064.44;5035321;28;45313;-81
2021/10/09 04:50:28;;;;;;;;;37.00;27.25;;;;;19.01;100.00;102067.00;5035355;28;45462;-81
2021/10/09 04:52:53;;;;;;;;;33.50;27.00;;;;;19.04;100.00;102077.44;5033228;28;45427;-81
2021/10/09 04:55:18;;;;;;;;;34.25;27.25;;;;;19.01;100.00;102075.03;5032745;28;45585;-81
2021/10/09 04:57:44;;;;;;;;;31.50;28.25;;;;;18.99;100.00;102071.63;5036809;28;45353;-81
2021/10/09 05:00:10;;;;;;;;;37.75;31.00;;;;;18.95;100.00;102078.19;5034047;28;47072;-81
2021/10/09 05:02:35;;;;;;;;;32.75;29.00;;;;;18.92;100.00;102065.09;5030108;28;45293;-81
2021/10/09 05:05:00;;;;;;;;;30.50;27.00;;;;;18.93;100.00;102057.91;5027695;28;45222;-81
2021/10/09 05:07:26;;;;;;;;;32.25;29.00;;;;;18.90;100.00;102063.50;5028816;28;45300;-81
2021/10/09 05:09:51;;;;;;;;;35.50;28.25;;;;;18.83;100.00;102064.97;5031948;28;46193;-81
2021/10/09 05:12:17;;;;;;;;;30.50;26.50;;;;;18.61;100.00;102065.84;5036794;28;45916;-81
2021/10/09 05:14:42;;;;;;;;;30.75;28.00;;;;;18.54;100.00;102059.25;5045051;28;45268;-81
2021/10/09 05:17:08;;;;;;;;;29.50;26.25;;;;;18.59;100.00;102068.66;5040028;28;45882;-81
2021/10/09 05:19:34;;;;;;;;;33.25;26.25;;;;;18.72;100.00;102067.66;5038081;28;45366;-81
2021/10/09 05:21:59;;;;;;;;;32.75;26.00;;;;;18.71;100.00;102063.28;5038547;28;45291;-81
2021/10/09 05:24:24;;;;;;;;;30.00;27.25;;;;;18.73;100.00;102066.69;5034993;28;45359;-81
2021/10/09 05:26:50;;;;;;;;;32.25;25.50;;;;;18.73;100.00;102064.03;5033381;28;45377;-81
2021/10/09 05:29:20;;;;;;;;;38.00;29.00;;;;;18.67;100.00;102057.31;5036194;28;47154;-81
2021/10/09 05:31:48;;;;;;;;;33.25;28.00;;;;;18.72;100.00;102071.19;5044351;28;45443;-81
2021/10/09 05:34:14;;;;;;;;;38.50;30.00;;;;;18.67;100.00;102071.56;5036261;28;45293;-82
2021/10/09 05:36:39;;;;;;;;;37.75;31.25;;;;;18.65;100.00;102062.81;5028412;28;45293;-82
2021/10/09 05:39:05;;;;;;;;;42.50;29.75;;;;;18.62;100.00;102068.41;5037852;28;46461;-81
2021/10/09 05:41:30;;;;;;;;;38.25;27.75;;;;;18.66;100.00;102074.38;5022120;28;45401;-80
2021/10/09 05:43:56;;;;;;;;;35.00;29.50;;;;;18.61;100.00;102065.84;5037304;28;45513;-81
2021/10/09 05:46:23;;;;;;;;;26.25;25.00;;;;;18.59;100.00;102065.97;5027967;28;45502;-80
2021/10/09 05:48:48;;;;;;;;;32.25;27.00;;;;;18.53;100.00;102066.44;5036046;28;45498;-81
2021/10/09 06:47:35;;;;;;;;;35.50;28.25;;;;;18.65;100.00;102124.38;5037370;28;45334;-82
2021/10/09 07:00:40;;;;;;;;;35.50;30.00;;;;;18.95;100.00;102146.94;5036692;28;45470;-81
2021/10/09 07:03:06;;;;;;;;;38.00;31.50;;;;;18.96;100.00;102144.16;5034658;28;46788;-81
2021/10/09 07:05:33;;;;;;;;;41.25;32.25;;;;;19.08;100.00;102149.50;5037914;28;45439;-81
2021/10/09 07:08:06;;;;;;;;;36.00;32.00;;;;;19.10;100.00;102143.03;5035504;28;45413;-81
2021/10/09 07:10:31;;;;;;;;;35.75;31.75;;;;;19.14;100.00;102155.19;5023463;28;45548;-82
2021/10/09 07:12:57;;;;;;;;;46.00;32.75;;;;;19.27;100.00;102155.91;5025847;28;46454;-81
2021/10/09 07:15:22;;;;;;;;;36.50;30.75;;;;;19.30;100.00;102152.97;5023646;28;45620;-83
2021/10/09 07:17:48;;;;;;;;;40.25;31.50;;;;;19.36;100.00;102155.16;5034412;28;45462;-82
2021/10/09 07:20:13;;;;;;;;;38.25;31.00;;;;;19.46;100.00;102165.97;5030309;28;45466;-81
2021/10/09 07:22:39;;;;;;;;;33.00;27.75;;;;;19.51;100.00;102154.88;5024488;28;45510;-82
2021/10/09 07:25:05;;;;;;;;;38.50;32.00;;;;;19.59;100.00;102168.50;5029006;28;45499;-81
2021/10/09 07:27:32;;;;;;;;;35.50;30.75;;;;;19.61;100.00;102164.72;5030509;28;45299;-81
2021/10/09 07:29:58;;;;;;;;;40.00;29.00;;;;;19.67;100.00;102166.88;5029799;28;45429;-84
2021/10/09 07:32:25;;;;;;;;;33.00;30.75;;;;;20.19;100.00;102162.50;5027278;27;45375;-81
2021/10/09 07:34:50;;;;;;;;;43.25;34.75;;;;;21.19;100.00;102161.72;5030773;28;45537;-81
2021/10/09 07:37:16;;;;;;;;;40.00;30.25;;;;;22.24;100.00;102160.06;5030355;28;45567;-81
2021/10/09 07:39:41;;;;;;;;;38.50;29.50;;;;;23.25;100.00;102169.16;5027334;28;45645;-84
2021/10/09 07:42:07;;;;;;;;;36.25;32.00;;;;;24.10;100.00;102163.28;5015662;28;45561;-82
2021/10/09 07:44:32;;;;;;;;;31.25;29.75;;;;;24.99;100.00;102153.03;5021547;28;45510;-82
2021/10/09 07:46:58;;;;;;;;;34.75;28.25;;;;;25.85;100.00;102155.41;5023233;28;45514;-82
2021/10/09 07:49:24;;;;;;;;;33.25;26.50;;;;;26.56;100.00;102158.22;5020804;28;45395;-82
2021/10/09 07:51:49;;;;;;;;;35.50;28.75;;;;;27.31;100.00;102164.03;5018687;28;45447;-82
2021/10/09 07:54:15;;;;;;;;;33.00;30.00;;;;;27.96;99.85;102168.13;5016751;28;45406;-81
2021/10/09 07:56:40;;;;;;;;;28.50;27.25;;;;;28.54;94.52;102156.56;5030852;28;45299;-80
2021/10/09 07:59:06;;;;;;;;;31.00;28.25;;;;;29.27;91.50;102166.53;5021741;28;45520;-82
2021/10/09 08:01:32;;;;;;;;;37.25;28.50;;;;;29.90;86.86;102162.16;5029459;27;46913;-82
2021/10/09 08:03:58;;;;;;;;;35.75;29.50;;;;;30.42;83.51;102169.91;5019170;27;45812;-81
2021/10/09 08:06:24;;;;;;;;;33.00;28.25;;;;;30.95;78.33;102173.84;5018829;28;45321;-82
2021/10/09 08:08:49;;;;;;;;;36.25;29.25;;;;;31.17;76.27;102178.13;5033550;27;45536;-82
2021/10/09 08:11:15;;;;;;;;;38.50;30.00;;;;;31.54;73.75;102165.84;5024312;28;45495;-81
2021/10/09 08:13:41;;;;;;;;;26.00;24.75;;;;;32.07;72.20;102170.53;5024386;28;45530;-81
2021/10/09 08:16:06;;;;;;;;;32.25;29.25;;;;;32.60;68.80;102171.31;5018990;28;45546;-81
2021/10/09 08:18:32;;;;;;;;;38.00;30.00;;;;;32.88;66.93;102168.31;5020404;28;45536;-81
2021/10/09 08:21:03;;;;;;;;;32.25;28.50;;;;;33.08;64.11;102177.28;5038429;28;46964;-81
2021/10/09 08:23:38;;;;;;;;;34.75;27.75;;;;;33.30;62.31;102175.94;5036932;27;45948;-81
2021/10/09 08:39:39;;;;;;;;;32.00;28.00;;;;;35.47;51.37;102169.38;5035052;28;45355;-82
2021/10/09 08:42:05;;;;;;;;;28.75;25.50;;;;;35.83;51.85;102172.00;5034538;28;46783;-82
2021/10/09 08:44:31;;;;;;;;;30.00;28.75;;;;;36.16;48.88;102167.84;5034082;28;45525;-82
2021/10/09 08:46:56;;;;;;;;;30.50;26.00;;;;;36.44;48.90;102164.38;5026773;28;45423;-82
2021/10/09 08:49:23;;;;;;;;;29.50;26.75;;;;;36.73;46.94;102168.91;5037933;28;45473;-82
2021/10/09 08:51:50;;;;;;;;;34.25;27.75;;;;;36.94;47.17;102165.50;5020470;28;46431;-81
2021/10/09 08:54:15;;;;;;;;;28.75;24.75;;;;;37.06;45.79;102168.19;5030340;28;45494;-82
2021/10/09 08:56:45;;;;;;;;;33.00;28.75;;;;;37.35;44.07;102177.34;5035398;28;45378;-82
2021/10/09 08:59:26;;;;;;;;;28.25;27.25;;;;;37.65;42.78;102166.91;5033897;28;45635;-82
2021/10/09 09:02:13;;;;;;;;;25.50;24.50;;;;;37.57;41.55;102170.03;5037069;28;45640;-82
2021/10/09 09:04:55;;;;;;;;;28.00;27.00;;;;;37.75;41.40;102161.56;5034348;28;45359;-82
2021/10/09 09:37:11;;;;;;;;;30.25;27.50;;;;;35.75;38.99;102163.28;5028224;28;45482;-81
2021/10/09 09:39:42;;;;;;;;;35.25;29.75;;;;;35.49;38.91;102154.34;5030408;28;45401;-81
2021/10/09 09:42:08;;;;;;;;;26.75;26.50;;;;;35.13;40.08;102154.44;5018621;28;45264;-81
2021/10/09 09:44:34;;;;;;;;;28.75;26.50;;;;;34.77;39.42;102164.41;5019201;28;46278;-81
2021/10/09 09:47:00;;;;;;;;;28.25;26.00;;;;;34.56;41.50;102158.50;5024193;28;45398;-81
2021/10/09 09:49:28;;;;;;;;;25.25;24.25;;;;;34.11;42.00;102155.97;5037343;28;45459;-81
2021/10/09 09:51:55;;;;;;;;;33.25;30.75;;;;;33.95;42.57;102151.06;5037837;28;45518;-81
2021/10/09 09:54:26;;;;;;;;;29.75;26.50;;;;;33.74;42.51;102144.06;5036594;28;47270;-82
2021/10/09 09:57:00;;;;;;;;;24.00;21.25;;;;;33.59;43.56;102140.78;5036270;28;45678;-82
2021/10/09 09:59:33;;;;;;;;;26.00;25.25;;;;;33.23;44.32;102144.19;5038009;28;45271;-82
2021/10/09 10:02:04;;;;;;;;;33.75;26.50;;;;;33.07;44.35;102146.31;5038048;28;45492;-82
2021/10/09 10:04:34;;;;;;;;;27.25;25.25;;;;;32.93;45.04;102150.19;5037622;28;46412;-82
2021/10/09 10:07:01;;;;;;;;;29.25;27.75;;;;;32.81;43.94;102140.97;5037863;28;45388;-82
2021/10/09 10:09:28;;;;;;;;;31.25;27.50;;;;;32.65;44.83;102138.69;5037776;28;45489;-83
2021/10/09 10:12:02;;;;;;;;;35.25;30.75;;;;;32.58;45.33;102135.16;5037812;28;45318;-82
2021/10/09 10:14:30;;;;;;;;;32.50;28.00;;;;;32.54;45.94;102133.88;5036264;28;47481;-82
2021/10/09 10:16:57;;;;;;;;;29.25;25.75;;;;;32.48;46.15;102132.84;5037905;28;45438;-82
2021/10/09 10:19:50;;;;;;;;;27.50;26.25;;;;;32.44;46.04;102144.44;5021066;28;45301;-82
2021/10/09 10:22:30;;;;;;;;;28.75;27.25;;;;;32.46;45.85;102132.22;5031242;28;45551;-82
2021/10/09 10:24:56;;;;;;;;;29.25;26.25;;;;;32.34;45.78;102144.88;5033513;28;46299;-82
2021/10/09 10:27:36;;;;;;;;;28.75;27.00;;;;;32.16;46.60;102134.59;5043613;28;46232;-82
2021/10/09 10:30:13;;;;;;;;;30.50;28.00;;;;;32.00;47.44;102134.16;5023508;27;45435;-86
2021/10/09 10:32:39;;;;;;;;;30.50;28.00;;;;;31.80;47.42;102126.81;5034150;28;46103;-84
2021/10/09 10:35:36;;;;;;;;;30.75;28.75;;;;;31.50;47.89;102137.25;5030184;28;45462;-83
2021/10/09 10:38:13;;;;;;;;;29.75;25.25;;;;;31.43;47.99;102138.28;5021407;28;45418;-82
2021/10/09 10:40:49;;;;;;;;;26.25;24.50;;;;;31.50;47.76;102141.91;5022237;28;45469;-82
2021/10/09 10:57:03;;;;;;;;;23.50;22.00;;;;;31.07;46.33;102128.56;5037150;28;45469;-82
2021/10/09 10:59:51;;;;;;;;;25.25;21.75;;;;;31.05;46.25;102124.34;5027148;28;45293;-82
2021/10/09 11:02:18;;;;;;;;;24.50;22.00;;;;;30.90;46.92;102127.19;5035927;28;45318;-82
2021/10/09 11:05:05;;;;;;;;;25.75;23.00;;;;;30.70;46.75;102124.38;5036019;28;45546;-82
2021/10/09 11:07:39;;;;;;;;;25.00;24.50;;;;;30.66;48.13;102123.13;5036778;28;46402;-82
2021/10/09 11:10:10;;;;;;;;;28.00;23.25;;;;;30.74;48.03;102124.84;5036932;28;45383;-82
2021/10/09 11:12:36;;;;;;;;;24.00;23.75;;;;;30.71;47.36;102123.34;5031746;28;46485;-82
2021/10/09 11:15:14;;;;;;;;;26.50;20.50;;;;;30.78;48.40;102117.91;5029172;28;45578;-82
2021/10/09 11:17:41;;;;;;;;;27.25;23.75;;;;;30.81;46.90;102114.78;5023963;28;46086;-82
2021/10/09 11:20:12;;;;;;;;;14.00;8.75;;;;;30.79;47.07;102111.41;5037060;27;45340;-82
2021/10/09 11:22:43;;;;;;;;;22.00;20.00;;;;;30.81;47.80;102112.06;5025883;28;45466;-82
2021/10/09 11:25:19;;;;;;;;;27.50;22.75;;;;;30.90;47.15;102115.44;5036770;28;45233;-82
2021/10/09 11:27:44;;;;;;;;;26.50;24.00;;;;;30.77;45.91;102119.81;5027574;28;48668;-82
2021/10/09 11:30:11;;;;;;;;;24.75;22.75;;;;;30.86;46.19;102123.22;5030152;28;45270;-82
2021/10/09 11:32:41;;;;;;;;;22.25;19.50;;;;;30.85;47.67;102116.91;5031911;28;45441;-82
2021/10/09 11:35:08;;;;;;;;;24.25;20.25;;;;;30.97;46.51;102105.38;5031816;28;46595;-82
2021/10/09 11:37:43;;;;;;;;;22.75;18.75;;;;;30.99;46.57;102114.22;5036320;28;45450;-82
2021/10/09 11:40:08;;;;;;;;;22.25;21.75;;;;;31.10;46.62;102110.94;5036669;28;45323;-82
2021/10/09 11:42:49;;;;;;;;;25.75;22.00;;;;;31.10;45.39;102106.31;5034874;28;45476;-82
2021/10/09 11:56:08;;;;;;;;;24.25;21.00;;;;;31.00;45.67;102094.91;5036079;28;45509;-82
2021/10/09 11:58:47;;;;;;;;;22.00;18.50;;;;;31.13;45.09;102100.47;5034677;28;48151;-82
2021/10/09 12:01:40;;;;;;;;;22.25;20.25;;;;;31.01;45.64;102096.59;5036014;28;45404;-82
2021/10/09 12:04:18;;;;;;;;;20.00;19.50;;;;;30.93;45.49;102085.03;5035925;28;45334;-82
2021/10/09 12:06:49;;;;;;;;;22.75;19.75;;;;;31.02;45.56;102097.44;5035936;28;45431;-82
2021/10/09 12:09:16;;;;;;;;;19.50;18.50;;;;;31.07;45.42;102093.06;5036419;28;46155;-82
2021/10/09 12:11:43;;;;;;;;;25.50;22.50;;;;;31.17;45.53;102084.50;5020696;28;45956;-82
2021/10/09 12:14:10;;;;;;;;;19.00;18.00;;;;;31.18;44.71;102094.38;5021069;28;46574;-82
2021/10/09 12:16:40;;;;;;;;;13.50;13.50;;;;;31.15;44.29;102087.41;5024674;28;45571;-82
2021/10/09 12:19:16;;;;;;;;;20.00;19.75;;;;;31.19;44.14;102090.59;5020394;28;46759;-81
2021/10/09 12:21:51;;;;;;;;;28.25;22.25;;;;;31.21;44.46;102083.03;5028439;27;45677;-82
2021/10/09 12:24:20;;;;;;;;;19.75;17.00;;;;;31.10;43.70;102087.22;5034484;28;45564;-81
2021/10/09 12:27:06;;;;;;;;;20.50;19.75;;;;;31.04;43.29;102088.03;5036878;28;45548;-82
2021/10/09 12:29:37;;;;;;;;;22.00;19.00;;;;;31.02;43.01;102079.19;5025392;27;47080;-82
2021/10/09 12:32:19;;;;;;;;;22.50;16.00;;;;;30.99;42.96;102084.22;5035740;28;45691;-82
2021/10/09 12:34:45;;;;;;;;;19.00;17.75;;;;;30.91;43.31;102068.03;5025483;28;45426;-82
2021/10/09 12:37:16;;;;;;;;;28.75;22.00;;;;;30.89;43.98;102079.13;5021355;28;45697;-82
2021/10/09 12:39:43;;;;;;;;;20.50;17.25;;;;;30.88;44.21;102070.13;5030264;28;47767;-82
2021/10/09 12:42:11;;;;;;;;;27.50;19.50;;;;;30.87;43.66;102070.31;5020636;28;45501;-83
2021/10/09 12:44:36;;;;;;;;;18.75;16.75;;;;;30.75;43.47;102071.97;5019675;28;45704;-81
2021/10/09 12:47:02;;;;;;;;;17.25;15.50;;;;;30.79;42.82;102067.78;5017735;28;45702;-82
2021/10/09 12:49:27;;;;;;;;;17.75;17.25;;;;;30.72;43.16;102066.91;5019073;28;45735;-82
2021/10/09 12:51:53;;;;;;;;;14.75;13.25;;;;;30.58;42.29;102062.47;5019616;28;45421;-81
2021/10/09 12:54:18;;;;;;;;;22.25;17.50;;;;;30.60;42.98;102057.63;5030886;28;46802;-82
2021/10/09 12:56:46;;;;;;;;;22.75;22.00;;;;;30.45;42.95;102071.38;5019646;28;45402;-82
2021/10/09 12:59:11;;;;;;;;;20.00;17.50;;;;;30.22;42.97;102057.22;5019125;28;47369;-82
2021/10/09 13:01:37;;;;;;;;;20.25;17.75;;;;;30.17;43.71;102065.16;5031474;28;45343;-81
2021/10/09 13:04:04;;;;;;;;;20.75;17.75;;;;;30.11;43.89;102062.19;5019488;28;45352;-81
2021/10/09 13:06:29;;;;;;;;;15.25;15.25;;;;;30.05;43.55;102057.53;5023976;28;45378;-82
2021/10/09 13:08:55;;;;;;;;;20.50;17.50;;;;;30.06;43.63;102055.66;5016898;28;48108;-81
2021/10/09 13:11:29;;;;;;;;;16.50;12.25;;;;;30.12;43.85;102063.03;5102154;27;45922;-81
2021/10/09 13:13:55;;;;;;;;;16.25;15.25;;;;;30.05;43.65;102053.94;5020459;28;45337;-81
2021/10/09 13:16:20;;;;;;;;;19.00;18.00;;;;;30.08;43.74;102050.84;5034319;28;45399;-82
2021/10/09 13:18:45;;;;;;;;;20.00;17.00;;;;;29.85;43.47;102050.25;5018466;27;47135;-82
2021/10/09 13:21:11;;;;;;;;;18.25;14.00;;;;;29.78;43.60;102042.00;5020786;27;45469;-82
2021/10/09 13:23:37;;;;;;;;;18.75;17.50;;;;;29.80;43.86;102045.38;5018880;28;45457;-81
2021/10/09 13:26:03;;;;;;;;;21.00;17.25;;;;;29.93;44.45;102050.09;5029747;28;45905;-81
2021/10/09 13:28:28;;;;;;;;;17.75;17.50;;;;;29.99;44.61;102049.31;5034243;28;46467;-81
2021/10/09 13:30:54;;;;;;;;;17.00;15.75;;;;;30.00;44.72;102051.00;5043658;28;45349;-82